sensor_id;sensor_type;location;lat;lon;timestamp;P1;durP1;ratioP1;P2;durP2;ratioP2
51030;SDS011;37058;41.442;23.240;2023-04-06T00:00:03;15.90;;;9.00;;
51030;SDS011;37058;41.442;23.240;2023-04-06T00:02:30;22.13;;;12.43;;
51030;SDS011;37058;41.442;23.240;2023-04-06T00:04:56;22.87;;;13.13;;
51030;SDS011;37058;41.442;23.240;2023-04-06T00:07:22;22.70;;;12.90;;
51030;SDS011;37058;41.442;23.240;2023-04-06T00:09:48;22.40;;;12.57;;
51030;SDS011;37058;41.442;23.240;2023-04-06T00:12:13;17.87;;;10.73;;
51030;SDS011;37058;41.442;23.240;2023-04-06T00:14:40;14.33;;;8.90;;
51030;SDS011;37058;41.442;23.240;2023-04-06T00:17:05;18.67;;;10.90;;
51030;SDS011;37058;41.442;23.240;2023-04-06T00:19:31;16.27;;;10.43;;
51030;SDS011;37058;41.442;23.240;2023-04-06T00:21:57;10.27;;;7.87;;
51030;SDS011;37058;41.442;23.240;2023-04-06T00:24:23;12.80;;;7.63;;
51030;SDS011;37058;41.442;23.240;2023-04-06T00:26:49;9.00;;;6.70;;
51030;SDS011;37058;41.442;23.240;2023-04-06T00:29:15;10.03;;;7.30;;
51030;SDS011;37058;41.442;23.240;2023-04-06T00:31:41;14.47;;;6.97;;
51030;SDS011;37058;41.442;23.240;2023-04-06T00:34:07;7.77;;;6.33;;
51030;SDS011;37058;41.442;23.240;2023-04-06T00:36:33;8.80;;;6.10;;
51030;SDS011;37058;41.442;23.240;2023-04-06T00:38:59;10.73;;;7.10;;
51030;SDS011;37058;41.442;23.240;2023-04-06T00:41:25;9.07;;;7.10;;
51030;SDS011;37058;41.442;23.240;2023-04-06T00:43:51;9.77;;;7.23;;
51030;SDS011;37058;41.442;23.240;2023-04-06T00:46:18;10.90;;;8.10;;
51030;SDS011;37058;41.442;23.240;2023-04-06T00:48:44;12.03;;;8.60;;
51030;SDS011;37058;41.442;23.240;2023-04-06T00:51:10;11.60;;;9.20;;
51030;SDS011;37058;41.442;23.240;2023-04-06T00:53:36;13.10;;;9.00;;
51030;SDS011;37058;41.442;23.240;2023-04-06T00:56:02;14.97;;;10.07;;
51030;SDS011;37058;41.442;23.240;2023-04-06T00:58:28;11.20;;;8.10;;
51030;SDS011;37058;41.442;23.240;2023-04-06T01:00:53;13.00;;;8.63;;
51030;SDS011;37058;41.442;23.240;2023-04-06T01:03:19;12.43;;;9.00;;
51030;SDS011;37058;41.442;23.240;2023-04-06T01:05:45;10.67;;;7.80;;
51030;SDS011;37058;41.442;23.240;2023-04-06T01:08:11;12.20;;;8.50;;
51030;SDS011;37058;41.442;23.240;2023-04-06T01:10:37;12.77;;;8.57;;
51030;SDS011;37058;41.442;23.240;2023-04-06T01:13:03;12.93;;;8.60;;
51030;SDS011;37058;41.442;23.240;2023-04-06T01:15:29;16.27;;;9.20;;
51030;SDS011;37058;41.442;23.240;2023-04-06T01:17:57;21.23;;;12.60;;
51030;SDS011;37058;41.442;23.240;2023-04-06T01:20:22;15.17;;;10.73;;
51030;SDS011;37058;41.442;23.240;2023-04-06T01:22:48;20.37;;;12.87;;
51030;SDS011;37058;41.442;23.240;2023-04-06T01:25:14;11.67;;;9.00;;
51030;SDS011;37058;41.442;23.240;2023-04-06T01:27:40;13.53;;;9.17;;
51030;SDS011;37058;41.442;23.240;2023-04-06T01:30:06;11.47;;;8.10;;
51030;SDS011;37058;41.442;23.240;2023-04-06T01:32:32;13.70;;;10.07;;
51030;SDS011;37058;41.442;23.240;2023-04-06T01:34:58;12.70;;;8.87;;
51030;SDS011;37058;41.442;23.240;2023-04-06T01:37:24;13.23;;;8.50;;
51030;SDS011;37058;41.442;23.240;2023-04-06T01:39:51;11.73;;;8.27;;
51030;SDS011;37058;41.442;23.240;2023-04-06T01:42:17;16.17;;;9.50;;
51030;SDS011;37058;41.442;23.240;2023-04-06T01:44:43;13.93;;;9.33;;
51030;SDS011;37058;41.442;23.240;2023-04-06T01:47:09;8.77;;;7.43;;
51030;SDS011;37058;41.442;23.240;2023-04-06T01:49:35;12.43;;;8.33;;
51030;SDS011;37058;41.442;23.240;2023-04-06T01:52:01;11.43;;;8.40;;
51030;SDS011;37058;41.442;23.240;2023-04-06T01:54:27;10.13;;;6.97;;
51030;SDS011;37058;41.442;23.240;2023-04-06T01:56:52;10.03;;;7.13;;
51030;SDS011;37058;41.442;23.240;2023-04-06T01:59:18;10.07;;;7.10;;
51030;SDS011;37058;41.442;23.240;2023-04-06T02:01:44;10.67;;;7.20;;
51030;SDS011;37058;41.442;23.240;2023-04-06T02:04:10;10.67;;;7.90;;
51030;SDS011;37058;41.442;23.240;2023-04-06T02:06:36;11.43;;;7.10;;
51030;SDS011;37058;41.442;23.240;2023-04-06T02:09:02;12.33;;;7.17;;
51030;SDS011;37058;41.442;23.240;2023-04-06T02:11:28;10.37;;;7.33;;
51030;SDS011;37058;41.442;23.240;2023-04-06T02:13:54;9.20;;;7.30;;
51030;SDS011;37058;41.442;23.240;2023-04-06T02:16:21;10.77;;;7.53;;
51030;SDS011;37058;41.442;23.240;2023-04-06T02:18:47;11.47;;;7.67;;
51030;SDS011;37058;41.442;23.240;2023-04-06T02:21:14;11.00;;;6.83;;
51030;SDS011;37058;41.442;23.240;2023-04-06T02:23:44;28.53;;;13.57;;
51030;SDS011;37058;41.442;23.240;2023-04-06T02:26:14;18.77;;;10.83;;
51030;SDS011;37058;41.442;23.240;2023-04-06T02:28:40;12.57;;;7.30;;
51030;SDS011;37058;41.442;23.240;2023-04-06T02:31:07;10.27;;;7.27;;
51030;SDS011;37058;41.442;23.240;2023-04-06T02:33:33;12.60;;;7.67;;
51030;SDS011;37058;41.442;23.240;2023-04-06T02:35:59;12.17;;;8.53;;
51030;SDS011;37058;41.442;23.240;2023-04-06T02:38:25;13.70;;;8.07;;
51030;SDS011;37058;41.442;23.240;2023-04-06T02:40:51;16.43;;;9.00;;
51030;SDS011;37058;41.442;23.240;2023-04-06T02:43:16;12.07;;;8.53;;
51030;SDS011;37058;41.442;23.240;2023-04-06T02:45:43;11.17;;;7.97;;
51030;SDS011;37058;41.442;23.240;2023-04-06T02:48:09;12.03;;;7.70;;
51030;SDS011;37058;41.442;23.240;2023-04-06T02:50:35;15.20;;;8.87;;
51030;SDS011;37058;41.442;23.240;2023-04-06T02:53:01;13.03;;;8.77;;
51030;SDS011;37058;41.442;23.240;2023-04-06T02:55:27;11.50;;;8.43;;
51030;SDS011;37058;41.442;23.240;2023-04-06T02:57:53;15.00;;;9.10;;
51030;SDS011;37058;41.442;23.240;2023-04-06T03:00:19;17.00;;;8.80;;
51030;SDS011;37058;41.442;23.240;2023-04-06T03:02:45;13.40;;;9.13;;
51030;SDS011;37058;41.442;23.240;2023-04-06T03:05:11;17.47;;;8.57;;
51030;SDS011;37058;41.442;23.240;2023-04-06T03:07:37;15.33;;;8.93;;
51030;SDS011;37058;41.442;23.240;2023-04-06T03:10:03;12.47;;;9.47;;
51030;SDS011;37058;41.442;23.240;2023-04-06T03:12:30;13.50;;;8.83;;
51030;SDS011;37058;41.442;23.240;2023-04-06T03:14:56;11.83;;;7.70;;
51030;SDS011;37058;41.442;23.240;2023-04-06T03:17:21;16.17;;;8.83;;
51030;SDS011;37058;41.442;23.240;2023-04-06T03:19:47;12.20;;;7.90;;
51030;SDS011;37058;41.442;23.240;2023-04-06T03:22:13;19.10;;;11.73;;
51030;SDS011;37058;41.442;23.240;2023-04-06T03:24:39;28.17;;;16.17;;
51030;SDS011;37058;41.442;23.240;2023-04-06T03:27:05;31.87;;;18.57;;
51030;SDS011;37058;41.442;23.240;2023-04-06T03:29:31;33.10;;;18.77;;
51030;SDS011;37058;41.442;23.240;2023-04-06T03:31:57;36.97;;;19.63;;
51030;SDS011;37058;41.442;23.240;2023-04-06T03:34:23;29.33;;;17.47;;
51030;SDS011;37058;41.442;23.240;2023-04-06T03:36:49;28.50;;;18.70;;
51030;SDS011;37058;41.442;23.240;2023-04-06T03:39:15;33.33;;;22.50;;
51030;SDS011;37058;41.442;23.240;2023-04-06T03:41:41;37.63;;;20.43;;
51030;SDS011;37058;41.442;23.240;2023-04-06T03:44:08;26.37;;;15.50;;
51030;SDS011;37058;41.442;23.240;2023-04-06T03:46:34;18.20;;;11.80;;
51030;SDS011;37058;41.442;23.240;2023-04-06T03:48:59;19.43;;;12.27;;
51030;SDS011;37058;41.442;23.240;2023-04-06T03:51:27;19.90;;;13.57;;
51030;SDS011;37058;41.442;23.240;2023-04-06T03:53:53;19.77;;;12.63;;
51030;SDS011;37058;41.442;23.240;2023-04-06T03:56:19;22.90;;;15.43;;
51030;SDS011;37058;41.442;23.240;2023-04-06T03:58:45;28.53;;;16.53;;
51030;SDS011;37058;41.442;23.240;2023-04-06T04:01:14;31.13;;;19.30;;
51030;SDS011;37058;41.442;23.240;2023-04-06T04:03:40;22.10;;;14.30;;
51030;SDS011;37058;41.442;23.240;2023-04-06T04:06:06;24.07;;;14.17;;
51030;SDS011;37058;41.442;23.240;2023-04-06T04:08:32;23.30;;;14.03;;
51030;SDS011;37058;41.442;23.240;2023-04-06T04:10:58;22.17;;;14.63;;
51030;SDS011;37058;41.442;23.240;2023-04-06T04:13:23;21.77;;;14.70;;
51030;SDS011;37058;41.442;23.240;2023-04-06T04:15:49;16.60;;;12.33;;
51030;SDS011;37058;41.442;23.240;2023-04-06T04:18:15;18.80;;;12.83;;
51030;SDS011;37058;41.442;23.240;2023-04-06T04:20:41;19.53;;;13.37;;
51030;SDS011;37058;41.442;23.240;2023-04-06T04:23:07;24.13;;;12.50;;
51030;SDS011;37058;41.442;23.240;2023-04-06T04:25:33;23.00;;;14.63;;
51030;SDS011;37058;41.442;23.240;2023-04-06T04:27:59;20.97;;;13.30;;
51030;SDS011;37058;41.442;23.240;2023-04-06T04:30:25;24.73;;;16.43;;
51030;SDS011;37058;41.442;23.240;2023-04-06T04:32:51;18.13;;;13.27;;
51030;SDS011;37058;41.442;23.240;2023-04-06T04:35:17;16.27;;;10.97;;
51030;SDS011;37058;41.442;23.240;2023-04-06T04:37:43;21.10;;;12.13;;
51030;SDS011;37058;41.442;23.240;2023-04-06T04:40:09;30.93;;;16.73;;
51030;SDS011;37058;41.442;23.240;2023-04-06T04:42:35;33.47;;;17.47;;
51030;SDS011;37058;41.442;23.240;2023-04-06T04:45:01;25.87;;;15.30;;
51030;SDS011;37058;41.442;23.240;2023-04-06T04:47:27;23.53;;;15.30;;
51030;SDS011;37058;41.442;23.240;2023-04-06T04:49:53;30.87;;;16.07;;
51030;SDS011;37058;41.442;23.240;2023-04-06T04:52:19;43.30;;;22.17;;
51030;SDS011;37058;41.442;23.240;2023-04-06T04:54:45;25.53;;;12.10;;
51030;SDS011;37058;41.442;23.240;2023-04-06T04:57:12;20.90;;;13.97;;
51030;SDS011;37058;41.442;23.240;2023-04-06T04:59:38;14.97;;;10.20;;
51030;SDS011;37058;41.442;23.240;2023-04-06T05:02:04;15.67;;;8.73;;
51030;SDS011;37058;41.442;23.240;2023-04-06T05:04:30;26.97;;;14.57;;
51030;SDS011;37058;41.442;23.240;2023-04-06T05:07:05;36.83;;;15.77;;
51030;SDS011;37058;41.442;23.240;2023-04-06T05:09:33;30.57;;;14.43;;
51030;SDS011;37058;41.442;23.240;2023-04-06T05:11:59;39.83;;;14.53;;
51030;SDS011;37058;41.442;23.240;2023-04-06T05:14:25;26.13;;;11.97;;
51030;SDS011;37058;41.442;23.240;2023-04-06T05:16:52;17.27;;;11.33;;
51030;SDS011;37058;41.442;23.240;2023-04-06T05:19:19;16.23;;;9.40;;
51030;SDS011;37058;41.442;23.240;2023-04-06T05:21:45;15.30;;;7.13;;
51030;SDS011;37058;41.442;23.240;2023-04-06T05:24:11;11.33;;;7.63;;
51030;SDS011;37058;41.442;23.240;2023-04-06T05:26:37;12.40;;;8.07;;
51030;SDS011;37058;41.442;23.240;2023-04-06T05:29:03;14.00;;;8.93;;
51030;SDS011;37058;41.442;23.240;2023-04-06T05:31:29;15.77;;;8.67;;
51030;SDS011;37058;41.442;23.240;2023-04-06T05:33:56;14.83;;;8.80;;
51030;SDS011;37058;41.442;23.240;2023-04-06T05:36:22;11.97;;;8.47;;
51030;SDS011;37058;41.442;23.240;2023-04-06T05:38:48;12.83;;;9.27;;
51030;SDS011;37058;41.442;23.240;2023-04-06T05:41:15;23.33;;;8.53;;
51030;SDS011;37058;41.442;23.240;2023-04-06T05:43:41;15.53;;;8.90;;
51030;SDS011;37058;41.442;23.240;2023-04-06T05:46:07;14.07;;;7.37;;
51030;SDS011;37058;41.442;23.240;2023-04-06T05:48:33;12.73;;;8.40;;
51030;SDS011;37058;41.442;23.240;2023-04-06T05:50:59;12.13;;;8.73;;
51030;SDS011;37058;41.442;23.240;2023-04-06T05:53:25;13.43;;;8.67;;
51030;SDS011;37058;41.442;23.240;2023-04-06T05:55:53;21.40;;;12.53;;
51030;SDS011;37058;41.442;23.240;2023-04-06T05:58:19;27.13;;;15.10;;
51030;SDS011;37058;41.442;23.240;2023-04-06T06:00:45;15.37;;;9.80;;
51030;SDS011;37058;41.442;23.240;2023-04-06T06:03:12;12.63;;;8.77;;
51030;SDS011;37058;41.442;23.240;2023-04-06T06:05:38;9.53;;;7.87;;
51030;SDS011;37058;41.442;23.240;2023-04-06T06:08:04;7.07;;;6.13;;
51030;SDS011;37058;41.442;23.240;2023-04-06T06:10:30;8.27;;;6.60;;
51030;SDS011;37058;41.442;23.240;2023-04-06T06:12:56;10.43;;;7.57;;
51030;SDS011;37058;41.442;23.240;2023-04-06T06:15:22;10.40;;;7.03;;
51030;SDS011;37058;41.442;23.240;2023-04-06T06:17:48;10.13;;;6.97;;
51030;SDS011;37058;41.442;23.240;2023-04-06T06:20:13;8.80;;;7.03;;
51030;SDS011;37058;41.442;23.240;2023-04-06T06:22:40;8.57;;;6.37;;
51030;SDS011;37058;41.442;23.240;2023-04-06T06:25:06;7.50;;;6.47;;
51030;SDS011;37058;41.442;23.240;2023-04-06T06:27:32;11.77;;;6.90;;
51030;SDS011;37058;41.442;23.240;2023-04-06T06:29:57;8.90;;;6.83;;
51030;SDS011;37058;41.442;23.240;2023-04-06T06:32:23;11.40;;;6.33;;
51030;SDS011;37058;41.442;23.240;2023-04-06T06:34:49;8.90;;;6.37;;
51030;SDS011;37058;41.442;23.240;2023-04-06T06:37:15;9.10;;;6.23;;
51030;SDS011;37058;41.442;23.240;2023-04-06T06:39:41;9.27;;;6.67;;
51030;SDS011;37058;41.442;23.240;2023-04-06T06:42:07;10.27;;;7.50;;
51030;SDS011;37058;41.442;23.240;2023-04-06T06:44:33;14.23;;;7.87;;
51030;SDS011;37058;41.442;23.240;2023-04-06T06:46:59;10.93;;;8.20;;
51030;SDS011;37058;41.442;23.240;2023-04-06T06:49:25;9.30;;;7.63;;
51030;SDS011;37058;41.442;23.240;2023-04-06T06:51:51;8.47;;;6.77;;
51030;SDS011;37058;41.442;23.240;2023-04-06T06:54:17;10.73;;;7.93;;
51030;SDS011;37058;41.442;23.240;2023-04-06T06:56:42;8.60;;;6.67;;
51030;SDS011;37058;41.442;23.240;2023-04-06T06:59:08;7.63;;;6.10;;
51030;SDS011;37058;41.442;23.240;2023-04-06T07:01:34;7.30;;;5.77;;
51030;SDS011;37058;41.442;23.240;2023-04-06T07:04:01;8.07;;;5.83;;
51030;SDS011;37058;41.442;23.240;2023-04-06T07:06:27;9.45;;;6.15;;
51030;SDS011;37058;41.442;23.240;2023-04-06T07:08:53;9.60;;;6.23;;
51030;SDS011;37058;41.442;23.240;2023-04-06T07:11:19;8.43;;;6.67;;
51030;SDS011;37058;41.442;23.240;2023-04-06T07:13:45;7.83;;;5.93;;
51030;SDS011;37058;41.442;23.240;2023-04-06T07:16:11;11.23;;;6.77;;
51030;SDS011;37058;41.442;23.240;2023-04-06T07:18:37;10.53;;;6.77;;
51030;SDS011;37058;41.442;23.240;2023-04-06T07:21:03;10.10;;;5.20;;
51030;SDS011;37058;41.442;23.240;2023-04-06T07:23:29;9.40;;;6.57;;
51030;SDS011;37058;41.442;23.240;2023-04-06T07:25:55;11.30;;;6.73;;
51030;SDS011;37058;41.442;23.240;2023-04-06T07:28:21;10.03;;;6.93;;
51030;SDS011;37058;41.442;23.240;2023-04-06T07:30:47;7.77;;;5.97;;
51030;SDS011;37058;41.442;23.240;2023-04-06T07:33:13;11.07;;;6.10;;
51030;SDS011;37058;41.442;23.240;2023-04-06T07:35:39;8.67;;;7.00;;
51030;SDS011;37058;41.442;23.240;2023-04-06T07:38:05;9.50;;;6.87;;
51030;SDS011;37058;41.442;23.240;2023-04-06T07:40:31;8.27;;;6.23;;
51030;SDS011;37058;41.442;23.240;2023-04-06T07:42:57;10.43;;;5.73;;
51030;SDS011;37058;41.442;23.240;2023-04-06T07:45:23;11.10;;;7.00;;
51030;SDS011;37058;41.442;23.240;2023-04-06T07:47:49;10.47;;;6.80;;
51030;SDS011;37058;41.442;23.240;2023-04-06T07:50:15;8.33;;;5.90;;
51030;SDS011;37058;41.442;23.240;2023-04-06T07:52:41;9.60;;;6.07;;
51030;SDS011;37058;41.442;23.240;2023-04-06T07:55:07;8.03;;;5.90;;
51030;SDS011;37058;41.442;23.240;2023-04-06T07:57:34;8.57;;;6.17;;
51030;SDS011;37058;41.442;23.240;2023-04-06T08:00:00;7.83;;;5.97;;
51030;SDS011;37058;41.442;23.240;2023-04-06T08:02:26;8.67;;;6.40;;
51030;SDS011;37058;41.442;23.240;2023-04-06T08:04:51;10.53;;;6.27;;
51030;SDS011;37058;41.442;23.240;2023-04-06T08:07:17;10.47;;;6.60;;
51030;SDS011;37058;41.442;23.240;2023-04-06T08:09:43;7.77;;;5.70;;
51030;SDS011;37058;41.442;23.240;2023-04-06T08:12:09;12.83;;;7.67;;
51030;SDS011;37058;41.442;23.240;2023-04-06T08:14:35;6.23;;;4.97;;
51030;SDS011;37058;41.442;23.240;2023-04-06T08:17:01;7.77;;;5.83;;
51030;SDS011;37058;41.442;23.240;2023-04-06T08:19:27;10.93;;;7.57;;
51030;SDS011;37058;41.442;23.240;2023-04-06T08:21:53;8.30;;;5.60;;
51030;SDS011;37058;41.442;23.240;2023-04-06T08:24:18;12.67;;;5.63;;
51030;SDS011;37058;41.442;23.240;2023-04-06T08:26:44;6.17;;;4.97;;
51030;SDS011;37058;41.442;23.240;2023-04-06T08:29:10;9.30;;;6.27;;
51030;SDS011;37058;41.442;23.240;2023-04-06T08:31:36;8.40;;;6.40;;
51030;SDS011;37058;41.442;23.240;2023-04-06T08:34:03;9.03;;;6.17;;
51030;SDS011;37058;41.442;23.240;2023-04-06T08:36:33;7.55;;;5.90;;
51030;SDS011;37058;41.442;23.240;2023-04-06T08:38:59;7.13;;;5.83;;
51030;SDS011;37058;41.442;23.240;2023-04-06T08:41:25;12.63;;;5.80;;
51030;SDS011;37058;41.442;23.240;2023-04-06T08:46:25;6.73;;;5.50;;
51030;SDS011;37058;41.442;23.240;2023-04-06T08:48:57;11.90;;;5.67;;
51030;SDS011;37058;41.442;23.240;2023-04-06T08:51:25;7.80;;;5.53;;
51030;SDS011;37058;41.442;23.240;2023-04-06T08:53:53;7.70;;;5.37;;
51030;SDS011;37058;41.442;23.240;2023-04-06T08:56:21;11.77;;;6.27;;
51030;SDS011;37058;41.442;23.240;2023-04-06T08:58:48;9.83;;;5.87;;
51030;SDS011;37058;41.442;23.240;2023-04-06T09:01:17;7.83;;;5.67;;
51030;SDS011;37058;41.442;23.240;2023-04-06T09:03:45;7.15;;;5.68;;
51030;SDS011;37058;41.442;23.240;2023-04-06T09:06:13;7.77;;;5.30;;
51030;SDS011;37058;41.442;23.240;2023-04-06T09:08:40;8.27;;;6.07;;
51030;SDS011;37058;41.442;23.240;2023-04-06T09:11:07;8.77;;;6.00;;
51030;SDS011;37058;41.442;23.240;2023-04-06T09:13:53;10.07;;;6.33;;
51030;SDS011;37058;41.442;23.240;2023-04-06T09:16:21;17.07;;;7.33;;
51030;SDS011;37058;41.442;23.240;2023-04-06T09:18:48;6.93;;;5.23;;
51030;SDS011;37058;41.442;23.240;2023-04-06T09:21:18;8.97;;;5.30;;
51030;SDS011;37058;41.442;23.240;2023-04-06T09:23:44;7.53;;;5.47;;
51030;SDS011;37058;41.442;23.240;2023-04-06T09:26:16;6.53;;;5.37;;
51030;SDS011;37058;41.442;23.240;2023-04-06T09:28:49;7.88;;;5.75;;
51030;SDS011;37058;41.442;23.240;2023-04-06T09:31:24;16.60;;;6.63;;
51030;SDS011;37058;41.442;23.240;2023-04-06T09:33:56;12.67;;;6.90;;
51030;SDS011;37058;41.442;23.240;2023-04-06T09:36:32;9.37;;;6.03;;
51030;SDS011;37058;41.442;23.240;2023-04-06T09:39:03;7.13;;;5.27;;
51030;SDS011;37058;41.442;23.240;2023-04-06T09:41:34;10.03;;;5.80;;
51030;SDS011;37058;41.442;23.240;2023-04-06T09:44:07;8.07;;;5.87;;
51030;SDS011;37058;41.442;23.240;2023-04-06T09:46:41;6.93;;;5.27;;
51030;SDS011;37058;41.442;23.240;2023-04-06T09:49:08;11.17;;;6.87;;
51030;SDS011;37058;41.442;23.240;2023-04-06T09:51:36;8.87;;;6.43;;
51030;SDS011;37058;41.442;23.240;2023-04-06T09:54:06;8.30;;;6.13;;
51030;SDS011;37058;41.442;23.240;2023-04-06T09:56:38;9.43;;;5.27;;
51030;SDS011;37058;41.442;23.240;2023-04-06T09:59:24;7.07;;;5.60;;
51030;SDS011;37058;41.442;23.240;2023-04-06T10:04:59;6.93;;;5.27;;
51030;SDS011;37058;41.442;23.240;2023-04-06T10:07:34;7.17;;;4.93;;
51030;SDS011;37058;41.442;23.240;2023-04-06T10:10:02;10.37;;;6.87;;
51030;SDS011;37058;41.442;23.240;2023-04-06T10:12:28;6.60;;;5.43;;
51030;SDS011;37058;41.442;23.240;2023-04-06T10:14:54;7.60;;;5.77;;
51030;SDS011;37058;41.442;23.240;2023-04-06T10:17:21;9.67;;;5.60;;
51030;SDS011;37058;41.442;23.240;2023-04-06T10:19:55;8.87;;;6.33;;
51030;SDS011;37058;41.442;23.240;2023-04-06T10:22:57;7.03;;;5.83;;
51030;SDS011;37058;41.442;23.240;2023-04-06T10:26:04;7.93;;;5.70;;
51030;SDS011;37058;41.442;23.240;2023-04-06T10:28:31;7.03;;;6.07;;
51030;SDS011;37058;41.442;23.240;2023-04-06T10:33:30;6.97;;;5.38;;
51030;SDS011;37058;41.442;23.240;2023-04-06T10:35:56;6.60;;;4.87;;
51030;SDS011;37058;41.442;23.240;2023-04-06T10:38:38;10.23;;;7.53;;
51030;SDS011;37058;41.442;23.240;2023-04-06T10:41:09;9.23;;;5.87;;
51030;SDS011;37058;41.442;23.240;2023-04-06T10:43:37;7.23;;;4.93;;
51030;SDS011;37058;41.442;23.240;2023-04-06T10:46:06;6.40;;;4.47;;
51030;SDS011;37058;41.442;23.240;2023-04-06T10:48:40;7.70;;;5.57;;
51030;SDS011;37058;41.442;23.240;2023-04-06T10:51:16;6.87;;;4.70;;
51030;SDS011;37058;41.442;23.240;2023-04-06T10:53:44;6.07;;;5.00;;
51030;SDS011;37058;41.442;23.240;2023-04-06T10:56:15;5.93;;;5.03;;
51030;SDS011;37058;41.442;23.240;2023-04-06T11:01:17;6.53;;;5.03;;
51030;SDS011;37058;41.442;23.240;2023-04-06T11:03:53;5.17;;;4.40;;
51030;SDS011;37058;41.442;23.240;2023-04-06T11:06:23;7.03;;;4.70;;
51030;SDS011;37058;41.442;23.240;2023-04-06T11:08:53;8.70;;;5.10;;
51030;SDS011;37058;41.442;23.240;2023-04-06T11:11:20;6.60;;;4.63;;
51030;SDS011;37058;41.442;23.240;2023-04-06T11:13:52;5.50;;;4.47;;
51030;SDS011;37058;41.442;23.240;2023-04-06T11:16:25;6.70;;;4.90;;
51030;SDS011;37058;41.442;23.240;2023-04-06T11:18:57;11.93;;;5.27;;
51030;SDS011;37058;41.442;23.240;2023-04-06T11:21:39;7.80;;;4.87;;
51030;SDS011;37058;41.442;23.240;2023-04-06T11:26:50;6.70;;;5.13;;
51030;SDS011;37058;41.442;23.240;2023-04-06T11:29:21;6.30;;;4.93;;
51030;SDS011;37058;41.442;23.240;2023-04-06T11:31:53;7.13;;;4.67;;
51030;SDS011;37058;41.442;23.240;2023-04-06T11:34:24;6.40;;;4.63;;
51030;SDS011;37058;41.442;23.240;2023-04-06T11:36:55;11.10;;;5.00;;
51030;SDS011;37058;41.442;23.240;2023-04-06T11:39:26;7.50;;;5.07;;
51030;SDS011;37058;41.442;23.240;2023-04-06T11:41:57;8.10;;;5.10;;
51030;SDS011;37058;41.442;23.240;2023-04-06T11:44:37;7.37;;;5.37;;
51030;SDS011;37058;41.442;23.240;2023-04-06T11:47:06;6.13;;;4.73;;
51030;SDS011;37058;41.442;23.240;2023-04-06T11:49:38;7.20;;;4.40;;
51030;SDS011;37058;41.442;23.240;2023-04-06T11:52:19;6.60;;;4.83;;
51030;SDS011;37058;41.442;23.240;2023-04-06T11:54:51;7.47;;;4.60;;
51030;SDS011;37058;41.442;23.240;2023-04-06T11:57:19;6.73;;;4.73;;
51030;SDS011;37058;41.442;23.240;2023-04-06T11:59:50;7.23;;;4.93;;
51030;SDS011;37058;41.442;23.240;2023-04-06T12:02:16;7.23;;;4.80;;
51030;SDS011;37058;41.442;23.240;2023-04-06T12:04:43;6.47;;;4.87;;
51030;SDS011;37058;41.442;23.240;2023-04-06T12:07:09;6.07;;;4.97;;
51030;SDS011;37058;41.442;23.240;2023-04-06T12:09:36;8.33;;;4.93;;
51030;SDS011;37058;41.442;23.240;2023-04-06T12:12:02;7.17;;;5.07;;
51030;SDS011;37058;41.442;23.240;2023-04-06T12:14:28;6.63;;;4.97;;
51030;SDS011;37058;41.442;23.240;2023-04-06T12:16:56;8.63;;;4.60;;
51030;SDS011;37058;41.442;23.240;2023-04-06T12:19:22;6.22;;;4.68;;
51030;SDS011;37058;41.442;23.240;2023-04-06T12:21:51;9.93;;;4.45;;
51030;SDS011;37058;41.442;23.240;2023-04-06T12:24:20;9.73;;;5.20;;
51030;SDS011;37058;41.442;23.240;2023-04-06T12:26:46;6.07;;;4.67;;
51030;SDS011;37058;41.442;23.240;2023-04-06T12:29:12;5.93;;;4.70;;
51030;SDS011;37058;41.442;23.240;2023-04-06T12:31:38;17.67;;;6.20;;
51030;SDS011;37058;41.442;23.240;2023-04-06T12:34:05;7.60;;;5.40;;
51030;SDS011;37058;41.442;23.240;2023-04-06T12:36:32;9.07;;;6.40;;
51030;SDS011;37058;41.442;23.240;2023-04-06T12:38:58;8.07;;;5.77;;
51030;SDS011;37058;41.442;23.240;2023-04-06T12:41:26;8.77;;;5.73;;
51030;SDS011;37058;41.442;23.240;2023-04-06T12:43:53;9.57;;;5.77;;
51030;SDS011;37058;41.442;23.240;2023-04-06T12:46:19;15.87;;;6.20;;
51030;SDS011;37058;41.442;23.240;2023-04-06T12:48:45;15.43;;;6.00;;
51030;SDS011;37058;41.442;23.240;2023-04-06T12:51:11;8.15;;;5.43;;
51030;SDS011;37058;41.442;23.240;2023-04-06T12:53:37;7.40;;;6.00;;
51030;SDS011;37058;41.442;23.240;2023-04-06T12:56:10;6.93;;;5.60;;
51030;SDS011;37058;41.442;23.240;2023-04-06T12:58:42;7.37;;;5.53;;
51030;SDS011;37058;41.442;23.240;2023-04-06T13:01:09;6.37;;;5.53;;
51030;SDS011;37058;41.442;23.240;2023-04-06T13:03:37;7.83;;;4.60;;
51030;SDS011;37058;41.442;23.240;2023-04-06T13:06:04;6.83;;;5.20;;
51030;SDS011;37058;41.442;23.240;2023-04-06T13:08:33;8.93;;;5.60;;
51030;SDS011;37058;41.442;23.240;2023-04-06T13:10:59;8.57;;;4.87;;
51030;SDS011;37058;41.442;23.240;2023-04-06T13:13:27;14.40;;;6.40;;
51030;SDS011;37058;41.442;23.240;2023-04-06T13:15:55;21.97;;;6.93;;
51030;SDS011;37058;41.442;23.240;2023-04-06T13:18:27;15.70;;;6.47;;
51030;SDS011;37058;41.442;23.240;2023-04-06T13:20:55;11.93;;;6.13;;
51030;SDS011;37058;41.442;23.240;2023-04-06T13:23:21;7.23;;;5.17;;
51030;SDS011;37058;41.442;23.240;2023-04-06T13:25:56;7.30;;;4.77;;
51030;SDS011;37058;41.442;23.240;2023-04-06T13:28:27;7.90;;;6.00;;
51030;SDS011;37058;41.442;23.240;2023-04-06T13:30:53;6.63;;;5.13;;
51030;SDS011;37058;41.442;23.240;2023-04-06T13:33:19;6.63;;;5.47;;
51030;SDS011;37058;41.442;23.240;2023-04-06T13:35:45;10.87;;;5.40;;
51030;SDS011;37058;41.442;23.240;2023-04-06T13:38:12;7.13;;;5.90;;
51030;SDS011;37058;41.442;23.240;2023-04-06T13:40:39;9.30;;;5.13;;
51030;SDS011;37058;41.442;23.240;2023-04-06T13:43:05;16.10;;;5.73;;
51030;SDS011;37058;41.442;23.240;2023-04-06T13:45:32;21.03;;;6.63;;
51030;SDS011;37058;41.442;23.240;2023-04-06T13:47:58;12.30;;;6.20;;
51030;SDS011;37058;41.442;23.240;2023-04-06T13:50:27;9.87;;;5.80;;
51030;SDS011;37058;41.442;23.240;2023-04-06T13:52:54;8.25;;;5.70;;
51030;SDS011;37058;41.442;23.240;2023-04-06T13:55:21;13.13;;;6.43;;
51030;SDS011;37058;41.442;23.240;2023-04-06T13:57:49;10.70;;;5.73;;
51030;SDS011;37058;41.442;23.240;2023-04-06T14:00:16;11.83;;;5.73;;
51030;SDS011;37058;41.442;23.240;2023-04-06T14:02:42;10.73;;;5.50;;
51030;SDS011;37058;41.442;23.240;2023-04-06T14:05:09;14.93;;;5.83;;
51030;SDS011;37058;41.442;23.240;2023-04-06T14:07:35;9.90;;;5.93;;
51030;SDS011;37058;41.442;23.240;2023-04-06T14:10:02;8.97;;;5.80;;
51030;SDS011;37058;41.442;23.240;2023-04-06T14:12:28;8.40;;;5.90;;
51030;SDS011;37058;41.442;23.240;2023-04-06T14:14:56;9.93;;;6.17;;
51030;SDS011;37058;41.442;23.240;2023-04-06T14:17:22;10.80;;;5.80;;
51030;SDS011;37058;41.442;23.240;2023-04-06T14:19:48;7.30;;;5.07;;
51030;SDS011;37058;41.442;23.240;2023-04-06T14:22:14;8.20;;;5.90;;
51030;SDS011;37058;41.442;23.240;2023-04-06T14:24:39;8.10;;;5.13;;
51030;SDS011;37058;41.442;23.240;2023-04-06T14:27:05;21.60;;;6.83;;
51030;SDS011;37058;41.442;23.240;2023-04-06T14:29:31;6.77;;;5.10;;
51030;SDS011;37058;41.442;23.240;2023-04-06T14:31:57;7.43;;;4.63;;
51030;SDS011;37058;41.442;23.240;2023-04-06T14:34:25;7.17;;;5.00;;
51030;SDS011;37058;41.442;23.240;2023-04-06T14:36:52;12.77;;;5.63;;
51030;SDS011;37058;41.442;23.240;2023-04-06T14:39:18;6.30;;;4.60;;